Crary, North Dakota
Current Conditions -  °F | °C
As of 8:35 AM on Friday 28 Nov 2014 (Local Time) from KDVL Reporting Station
Overcast Overcast  
Wind Chill: -4°   Ceiling: 3200
Heat Index: 10°   Visibility: 9mi
Dew Point:   Wind: 12mph
Humidity: 62%   Direction: 120°ESE
Pressure: 29.86"   Gusts: NA
Location:  48.07°N, 98.64°W
Report Text: KDVL 281435Z AUTO 12010KT 9SM FEW016 OVC032 M12/M18 A2986 RMK AO1
Loading
Personal Weather Stations






























Interactive Weather Map New forecast layout! Learn more

10-Day Weather Forecast

Advertisements
Track Severe Weather on mobile